MSC Florentina — HPFH — position and weather

sailwx.info

Track history (hours):
 
Tides and Currents Weather Stations Pressure Air Temp Water Temp Dewpoint Dewpoint Depression Visibility Wind Speed Wind Dir Waves Ship Positions

MSC Florentina

Last reported at 2016-Feb-04 14:23 UTC. Time now 2016-Feb-10 08:48 UTC.
Position S 12°60' W 038°10'.

Length 300 m; draft 11.2 m.

Type: Ship. MMSI: 352870000.

Date/timePositionNaut miles runAvg speedWind from/ knotsBaromVisibWave heightAir tempDewpointWater temp
2016-Feb-04 14:23S 12°60' W 038°10'1416.7
2016-Feb-04 13:33S 13°06' W 038°24'1110.4
2016-Feb-04 12:32S 13°02' W 038°34'5 5.2
2016-Feb-04 11:33S 12°57' W 038°31'0 0.0
2016-Feb-04 10:33S 12°57' W 038°31'0 0.0
2016-Feb-04 09:33S 12°57' W 038°31'0 0.0
2016-Feb-04 08:33S 12°57' W 038°31'0 0.0
2016-Feb-04 07:33S 12°57' W 038°31'0 0.0
2016-Feb-04 06:33S 12°57' W 038°31'0 0.0
2016-Feb-04 05:33S 12°58' W 038°31'0 0.0
2016-Feb-04 04:33S 12°57' W 038°31'0 0.0
2016-Feb-04 03:33S 12°58' W 038°31'0 0.0
2016-Feb-04 02:33S 12°57' W 038°31'0 0.0
2016-Feb-04 01:33S 12°57' W 038°31'0 0.0
2016-Feb-04 00:33S 12°57' W 038°31'1 0.8
2016-Feb-03 23:33S 12°57' W 038°31'7 6.7
2016-Feb-03 22:30S 13°03' W 038°35'4 3.9
2016-Feb-03 21:34S 13°07' W 038°36'1 1.1
2016-Feb-03 20:33S 13°07' W 038°34'0 0.4
2016-Feb-03 19:34S 13°07' W 038°34'7 7.0
2016-Feb-03 18:33S 13°14' W 038°34'8 7.7
2016-Feb-03 17:33S 13°22' W 038°33'458 9.8
2016-Feb-01 19:04S 20°52' W 039°59'15711.3
2016-Feb-01 05:14S 22°56' W 041°43'1112.0
2016-Feb-01 04:18S 23°03' W 041°52'4810.1
2016-Jan-31 23:33S 23°05' W 042°44'123 3.9
2016-Jan-30 16:25S 23°51' W 044°48'8 6.2
2016-Jan-30 15:05S 23°55' W 044°56'3 6.4
2016-Jan-30 14:33S 23°57' W 044°59'7 6.6
2016-Jan-30 13:33S 24°00' W 045°06'6 6.5
2016-Jan-30 12:33S 24°03' W 045°12'6 6.4
2016-Jan-30 11:33S 24°06' W 045°18'7 6.6
2016-Jan-30 10:33S 24°10' W 045°24'7 6.7
2016-Jan-30 09:33S 24°13' W 045°31'7 6.7
2016-Jan-30 08:27S 24°16' W 045°38'5 6.1
2016-Jan-30 07:33S 24°17' W 045°44'7 6.6
2016-Jan-30 06:33S 24°15' W 045°50'7 6.6
2016-Jan-30 05:33S 24°12' W 045°57'7 6.9
2016-Jan-30 04:33S 24°09' W 046°04'7 7.0
2016-Jan-30 03:33S 24°07' W 046°11'8 7.5
2016-Jan-30 02:30S 24°03' W 046°19'5 4.9
2016-Jan-30 01:33S 23°59' W 046°17'1 0.6
2016-Jan-30 00:33S 23°58' W 046°17'0 0.0
2016-Jan-29 20:19S 23°58' W 046°17'0 0.0
2016-Jan-29 19:06S 23°58' W 046°17'0 0.0
2016-Jan-29 18:07S 23°58' W 046°17'0 0.0
2016-Jan-29 17:24S 23°58' W 046°17'0 0.0
2016-Jan-29 15:30S 23°58' W 046°17'0 0.0
2016-Jan-29 14:18S 23°58' W 046°17'0 0.1
2016-Jan-29 13:33S 23°58' W 046°18'7 6.7
2016-Jan-29 12:34S 24°04' W 046°21'8 8.4
2016-Jan-29 11:33S 24°12' W 046°24'1 1.2
2016-Jan-29 10:33S 24°12' W 046°25'6 5.7
2016-Jan-29 09:33S 24°18' W 046°28'4 4.1
2016-Jan-29 08:34S 24°21' W 046°29'3 3.3
2016-Jan-29 07:33S 24°24' W 046°31'7 7.0
2016-Jan-29 06:33S 24°30' W 046°35'7 6.9
2016-Jan-29 05:33S 24°35' W 046°41'7 6.9
2016-Jan-29 04:33S 24°39' W 046°47'7 6.9
2016-Jan-29 03:33S 24°43' W 046°53'7 6.8
2016-Jan-29 02:33S 24°47' W 046°59'  
Track history (hours):
 
Tides and Currents Weather Stations Pressure Air Temp Water Temp Dewpoint Dewpoint Depression Visibility Wind Speed Wind Dir Waves Ship Positions

MSC Florentina

Last reported at 2016-Feb-04 14:23 UTC. Time now 2016-Feb-10 08:48 UTC.
Position S 12°60' W 038°10'.

Length 300 m; draft 11.2 m.

Type: Ship. MMSI: 352870000.

Date/timePositionNaut miles runAvg speedWind from/ knotsBaromVisibWave heightAir tempDewpointWater temp
2016-Feb-04 14:23S 12°60' W 038°10'1416.7
2016-Feb-04 13:33S 13°06' W 038°24'1110.4
2016-Feb-04 12:32S 13°02' W 038°34'5 5.2
2016-Feb-04 11:33S 12°57' W 038°31'0 0.0
2016-Feb-04 10:33S 12°57' W 038°31'0 0.0
2016-Feb-04 09:33S 12°57' W 038°31'0 0.0
2016-Feb-04 08:33S 12°57' W 038°31'0 0.0
2016-Feb-04 07:33S 12°57' W 038°31'0 0.0
2016-Feb-04 06:33S 12°57' W 038°31'0 0.0
2016-Feb-04 05:33S 12°58' W 038°31'0 0.0
2016-Feb-04 04:33S 12°57' W 038°31'0 0.0
2016-Feb-04 03:33S 12°58' W 038°31'0 0.0
2016-Feb-04 02:33S 12°57' W 038°31'0 0.0
2016-Feb-04 01:33S 12°57' W 038°31'0 0.0
2016-Feb-04 00:33S 12°57' W 038°31'1 0.8
2016-Feb-03 23:33S 12°57' W 038°31'7 6.7
2016-Feb-03 22:30S 13°03' W 038°35'4 3.9
2016-Feb-03 21:34S 13°07' W 038°36'1 1.1
2016-Feb-03 20:33S 13°07' W 038°34'0 0.4
2016-Feb-03 19:34S 13°07' W 038°34'7 7.0
2016-Feb-03 18:33S 13°14' W 038°34'8 7.7
2016-Feb-03 17:33S 13°22' W 038°33'458 9.8
2016-Feb-01 19:04S 20°52' W 039°59'15711.3
2016-Feb-01 05:14S 22°56' W 041°43'1112.0
2016-Feb-01 04:18S 23°03' W 041°52'4810.1
2016-Jan-31 23:33S 23°05' W 042°44'123 3.9
2016-Jan-30 16:25S 23°51' W 044°48'8 6.2
2016-Jan-30 15:05S 23°55' W 044°56'3 6.4
2016-Jan-30 14:33S 23°57' W 044°59'7 6.6
2016-Jan-30 13:33S 24°00' W 045°06'6 6.5
2016-Jan-30 12:33S 24°03' W 045°12'6 6.4
2016-Jan-30 11:33S 24°06' W 045°18'7 6.6
2016-Jan-30 10:33S 24°10' W 045°24'7 6.7
2016-Jan-30 09:33S 24°13' W 045°31'7 6.7
2016-Jan-30 08:27S 24°16' W 045°38'5 6.1
2016-Jan-30 07:33S 24°17' W 045°44'7 6.6
2016-Jan-30 06:33S 24°15' W 045°50'7 6.6
2016-Jan-30 05:33S 24°12' W 045°57'7 6.9
2016-Jan-30 04:33S 24°09' W 046°04'7 7.0
2016-Jan-30 03:33S 24°07' W 046°11'8 7.5
2016-Jan-30 02:30S 24°03' W 046°19'5 4.9
2016-Jan-30 01:33S 23°59' W 046°17'1 0.6
2016-Jan-30 00:33S 23°58' W 046°17'0 0.0
2016-Jan-29 20:19S 23°58' W 046°17'0 0.0
2016-Jan-29 19:06S 23°58' W 046°17'0 0.0
2016-Jan-29 18:07S 23°58' W 046°17'0 0.0
2016-Jan-29 17:24S 23°58' W 046°17'0 0.0
2016-Jan-29 15:30S 23°58' W 046°17'0 0.0
2016-Jan-29 14:18S 23°58' W 046°17'0 0.1
2016-Jan-29 13:33S 23°58' W 046°18'7 6.7
2016-Jan-29 12:34S 24°04' W 046°21'8 8.4
2016-Jan-29 11:33S 24°12' W 046°24'1 1.2
2016-Jan-29 10:33S 24°12' W 046°25'6 5.7
2016-Jan-29 09:33S 24°18' W 046°28'4 4.1
2016-Jan-29 08:34S 24°21' W 046°29'3 3.3
2016-Jan-29 07:33S 24°24' W 046°31'7 7.0
2016-Jan-29 06:33S 24°30' W 046°35'7 6.9
2016-Jan-29 05:33S 24°35' W 046°41'7 6.9
2016-Jan-29 04:33S 24°39' W 046°47'7 6.9
2016-Jan-29 03:33S 24°43' W 046°53'7 6.8
2016-Jan-29 02:33S 24°47' W 046°59'  

Dump ship's entire track history